Time;durP1;ratioP1;P1;durP2;ratioP2;P2;SDS_P1;SDS_P2;PMS_P1;PMS_P2;Temp;Humidity;BMP_temperature;BMP_pressure;BME280_temperature;BME280_humidity;BME280_pressure;Samples;Min_cycle;Max_cycle;Signal;HPM_P1;HPM_P2
2021/03/03 08:53:24;;;;;;;8.50;4.70;;;;;;;4.70;63.81;101440.86;1773479;77;27126;-64
2021/03/03 08:55:53;;;;;;;9.03;4.83;;;;;;;4.73;63.55;101447.38;1738338;81;21427;-64
2021/03/03 08:58:39;;;;;;;12.82;5.67;;;;;;;4.75;63.29;101450.83;1720440;82;21419;-65
2021/03/03 09:01:06;;;;;;;10.43;5.37;;;;;;;4.76;63.17;101451.69;1736589;81;21847;-64
2021/03/03 09:03:36;;;;;;;9.53;5.60;;;;;;;4.77;63.13;101442.55;1691043;83;21416;-64
2021/03/03 09:06:03;;;;;;;13.43;5.65;;;;;;;4.76;63.16;101451.19;1719022;83;21873;-63
2021/03/03 09:08:30;;;;;;;11.83;5.75;;;;;;;4.80;63.13;101448.20;1720453;82;21467;-66
2021/03/03 09:10:58;;;;;;;12.13;5.50;;;;;;;4.83;62.66;101452.01;1735526;82;21274;-64
2021/03/03 09:13:26;;;;;;;12.90;5.53;;;;;;;4.88;62.54;101447.89;1738374;82;21440;-65
2021/03/03 09:16:08;;;;;;;11.97;5.55;;;;;;;4.95;62.58;101450.42;1738326;82;21418;-63
2021/03/03 09:18:37;;;;;;;15.08;6.28;;;;;;;5.06;62.67;101455.77;1738378;82;21873;-64
2021/03/03 09:21:10;;;;;;;11.73;5.33;;;;;;;5.22;62.54;101458.50;1734342;82;21340;-63
2021/03/03 09:23:38;;;;;;;12.25;5.30;;;;;;;5.31;61.87;101459.90;1718758;83;21433;-64
2021/03/03 09:26:21;;;;;;;11.33;5.40;;;;;;;5.39;61.32;101469.58;1704943;83;21353;-63
2021/03/03 09:28:48;;;;;;;11.15;5.33;;;;;;;5.46;60.89;101469.02;1703791;84;21198;-64
2021/03/03 09:31:35;;;;;;;6.95;4.60;;;;;;;5.49;60.62;101464.17;1704411;84;21173;-63
2021/03/03 09:34:04;;;;;;;10.43;4.45;;;;;;;5.55;60.74;101466.33;1704571;84;21323;-63
2021/03/03 09:36:32;;;;;;;11.50;5.20;;;;;;;5.66;60.11;101472.16;1704521;84;21174;-62
2021/03/03 09:39:00;;;;;;;11.88;5.00;;;;;;;5.69;59.78;101462.36;1705588;82;21446;-64
2021/03/03 09:41:28;;;;;;;11.75;4.87;;;;;;;5.77;59.72;101464.37;1693374;82;21444;-60
2021/03/03 09:44:02;;;;;;;8.45;4.62;;;;;;;5.83;59.48;101459.23;1690900;84;21966;-61
2021/03/03 09:46:55;;;;;;;10.15;4.75;;;;;;;5.88;58.92;101460.20;1691632;82;21153;-62
2021/03/03 09:49:29;;;;;;;8.93;4.47;;;;;;;5.83;58.92;101459.23;1691080;84;21229;-64
2021/03/03 09:51:58;;;;;;;9.23;4.35;;;;;;;5.83;59.14;101457.88;1690377;84;21323;-62
2021/03/03 09:54:32;;;;;;;9.90;4.78;;;;;;;5.85;59.00;101453.65;1689605;85;21418;-64
2021/03/03 09:57:13;;;;;;;11.38;5.10;;;;;;;5.86;59.00;101448.60;1689104;85;21484;-65
2021/03/03 09:59:43;;;;;;;12.30;5.22;;;;;;;5.87;58.74;101447.60;1698667;83;21861;-64
2021/03/03 10:02:18;;;;;;;8.93;4.87;;;;;;;5.91;58.72;101441.77;1659714;86;21444;-65
2021/03/03 10:04:46;;;;;;;6.78;4.20;;;;;;;5.98;58.58;101444.28;1641828;87;21820;-63
2021/03/03 10:07:23;;;;;;;10.48;4.50;;;;;;;6.04;58.53;101434.69;1640799;87;21222;-64
2021/03/03 10:09:51;;;;;;;10.78;4.25;;;;;;;6.08;58.34;101425.73;1654276;86;21183;-63
2021/03/03 10:12:22;;;;;;;9.38;4.17;;;;;;;6.11;58.36;101430.89;1649178;86;21156;-64
2021/03/03 10:15:05;;;;;;;12.53;5.40;;;;;;;6.12;57.91;101424.45;1639697;86;21485;-63
2021/03/03 10:17:39;;;;;;;11.48;4.10;;;;;;;6.14;57.90;101428.73;1660684;84;21193;-62
2021/03/03 10:20:38;;;;;;;10.68;4.08;;;;;;;6.24;58.03;101431.45;1696453;84;21290;-65
2021/03/03 10:23:22;;;;;;;7.62;4.10;;;;;;;6.34;57.24;101426.36;1661978;86;21381;-61
2021/03/03 10:26:05;;;;;;;9.55;4.05;;;;;;;6.38;57.34;101421.48;1668781;86;21304;-65
2021/03/03 10:28:34;;;;;;;11.73;4.17;;;;;;;6.46;56.80;101417.53;1683861;85;21286;-61
2021/03/03 10:31:04;;;;;;;13.70;4.45;;;;;;;6.58;56.46;101419.11;1667727;84;21201;-63
2021/03/03 10:33:39;;;;;;;11.38;4.30;;;;;;;6.66;55.89;101417.02;1675119;84;21161;-62
2021/03/03 10:36:19;;;;;;;5.20;2.90;;;;;;;6.68;55.72;101409.55;1668805;84;21193;-64
2021/03/03 10:38:54;;;;;;;6.47;2.92;;;;;;;6.67;55.14;101405.97;1680388;84;21400;-65
2021/03/03 10:41:31;;;;;;;4.83;2.58;;;;;;;6.63;55.08;101411.36;1658824;86;21429;-62
2021/03/03 10:44:05;;;;;;;;;;;;;;;6.63;55.12;101408.63;1651056;86;21437;-63
2021/03/03 10:46:33;;;;;;;6.15;2.83;;;;;;;6.72;55.10;101419.64;1641410;87;20231;-63
2021/03/03 10:49:14;;;;;;;6.92;3.52;;;;;;;6.83;54.26;101405.84;1640818;84;21194;-64
2021/03/03 10:51:43;;;;;;;6.42;2.98;;;;;;;6.87;54.16;101405.91;1639090;86;21913;-64
2021/03/03 10:54:12;;;;;;;5.47;2.87;;;;;;;6.89;54.16;101406.11;1630458;86;21507;-61
2021/03/03 10:56:41;;;;;;;8.20;2.75;;;;;;;6.94;53.64;101401.57;1637531;86;21392;-66
2021/03/03 10:59:30;;;;;;;4.15;2.50;;;;;;;6.98;53.77;101402.98;1660807;86;21865;-65
2021/03/03 11:02:03;;;;;;;5.95;2.80;;;;;;;7.04;53.75;101399.66;1635799;86;21462;-63
2021/03/03 11:04:42;;;;;;;5.67;2.50;;;;;;;7.08;53.78;101401.58;1636354;86;21207;-63
2021/03/03 11:07:11;;;;;;;6.75;2.83;;;;;;;7.07;53.45;101388.97;1661168;85;21838;-64
2021/03/03 11:09:39;;;;;;;8.55;3.22;;;;;;;7.07;53.18;101392.55;1656302;86;21190;-65
2021/03/03 11:12:09;;;;;;;6.25;3.05;;;;;;;6.99;53.26;101389.22;1659950;86;21416;-65
2021/03/03 11:14:37;;;;;;;7.00;2.83;;;;;;;6.94;53.94;101392.03;1641931;86;21199;-64
2021/03/03 11:17:06;;;;;;;6.67;2.60;;;;;;;6.97;53.73;101384.92;1628719;88;21203;-63
2021/03/03 11:19:35;;;;;;;8.40;3.60;;;;;;;7.03;53.69;101387.05;1628702;87;21462;-63
2021/03/03 11:22:03;;;;;;;5.70;3.12;;;;;;;7.12;53.94;101385.28;1628829;87;21479;-65
2021/03/03 11:24:31;;;;;;;6.90;2.70;;;;;;;7.22;53.63;101391.58;1628875;88;21239;-61
2021/03/03 11:27:00;;;;;;;7.70;3.75;;;;;;;7.26;53.19;101385.66;1628767;87;21203;-63
2021/03/03 11:29:27;;;;;;;8.48;4.00;;;;;;;7.28;52.90;101380.92;1628792;88;21467;-61
2021/03/03 11:31:57;;;;;;;7.90;4.17;;;;;;;7.30;52.35;101374.80;1653372;86;21239;-62
2021/03/03 11:34:24;;;;;;;8.30;3.80;;;;;;;7.34;52.77;101371.77;1660940;86;21214;-63
2021/03/03 11:36:52;;;;;;;8.38;3.70;;;;;;;7.48;53.01;101373.98;1660619;86;21292;-62
2021/03/03 11:39:20;;;;;;;7.35;3.85;;;;;;;7.62;53.15;101363.91;1661028;86;21213;-63
2021/03/03 11:41:47;;;;;;;8.85;3.67;;;;;;;7.75;52.81;101363.52;1661305;86;21236;-62
2021/03/03 11:44:14;;;;;;;8.05;3.47;;;;;;;7.87;52.50;101363.16;1661591;86;21971;-66
2021/03/03 11:46:42;;;;;;;7.12;3.42;;;;;;;7.98;51.63;101361.20;1661382;86;21181;-65
2021/03/03 11:49:11;;;;;;;6.75;3.08;;;;;;;7.98;51.34;101366.15;1661404;86;21521;-63
2021/03/03 11:51:38;;;;;;;4.95;2.37;;;;;;;7.96;50.50;101377.73;1661236;86;22080;-61
2021/03/03 11:54:08;;;;;;;5.25;2.50;;;;;;;7.84;49.66;101378.48;1664095;85;21269;-65
2021/03/03 11:56:35;;;;;;;3.55;2.22;;;;;;;7.74;50.41;101366.75;1660232;86;21158;-65
2021/03/03 11:59:03;;;;;;;6.08;2.80;;;;;;;7.71;49.78;101358.87;1664282;86;21418;-62
2021/03/03 12:01:31;;;;;;;5.53;2.33;;;;;;;7.68;50.19;101356.46;1643300;86;21195;-63
2021/03/03 12:04:01;;;;;;;4.72;2.33;;;;;;;7.71;50.29;101357.52;1700586;83;22022;-64
2021/03/03 12:06:28;;;;;;;9.03;2.58;;;;;;;7.69;50.03;101355.95;1688135;83;21416;-63
2021/03/03 12:08:56;;;;;;;5.58;2.35;;;;;;;7.69;50.25;101355.45;1697606;83;21189;-65
2021/03/03 12:11:25;;;;;;;6.65;2.60;;;;;;;7.74;50.50;101362.66;1703861;83;21908;-63
2021/03/03 12:13:52;;;;;;;4.95;2.67;;;;;;;7.77;50.11;101351.44;1714315;83;21164;-61
2021/03/03 12:16:19;;;;;;;7.83;3.12;;;;;;;7.78;50.17;101341.38;1714709;83;21389;-65
2021/03/03 12:18:48;;;;;;;7.47;3.00;;;;;;;7.86;50.42;101334.16;1714671;83;21367;-64
2021/03/03 12:21:16;;;;;;;8.15;3.45;;;;;;;7.98;50.60;101344.82;1712710;82;21418;-67
2021/03/03 12:23:44;;;;;;;5.60;2.92;;;;;;;8.12;49.65;101339.66;1714056;83;21754;-64
2021/03/03 12:26:11;;;;;;;6.42;3.08;;;;;;;8.17;49.08;101335.94;1711375;83;21323;-66
2021/03/03 12:28:39;;;;;;;11.35;2.70;;;;;;;8.17;48.75;101328.25;1716393;83;21389;-64
2021/03/03 12:31:06;;;;;;;5.37;2.75;;;;;;;8.15;49.47;101327.56;1684652;83;21184;-65
2021/03/03 12:33:34;;;;;;;5.95;2.75;;;;;;;8.10;48.83;101331.27;1693837;83;21187;-63
2021/03/03 12:36:06;;;;;;;6.12;2.70;;;;;;;8.02;48.63;101332.06;1695270;83;21171;-64
2021/03/03 12:38:35;;;;;;;9.15;3.10;;;;;;;7.93;49.05;101331.14;1712729;83;21156;-63
2021/03/03 12:41:02;;;;;;;8.00;3.62;;;;;;;7.92;49.67;101328.06;1714479;83;21599;-63
2021/03/03 12:43:31;;;;;;;8.60;3.22;;;;;;;8.02;49.32;101329.84;1708253;83;21365;-63
2021/03/03 12:45:58;;;;;;;6.80;3.25;;;;;;;8.04;49.37;101322.36;1713477;83;21495;-70
2021/03/03 12:48:26;;;;;;;9.63;3.92;;;;;;;8.15;50.31;101318.00;1716262;83;21218;-71
2021/03/03 12:50:55;;;;;;;7.92;3.70;;;;;;;8.28;49.59;101322.02;1702296;83;21197;-61
2021/03/03 12:53:22;;;;;;;7.83;3.30;;;;;;;8.38;48.98;101317.85;1716575;82;21901;-63
2021/03/03 12:55:50;;;;;;;9.38;3.33;;;;;;;8.39;49.26;101315.47;1718181;83;21336;-62
2021/03/03 12:58:17;;;;;;;8.48;3.17;;;;;;;8.51;49.82;101320.18;1694989;83;21437;-65
2021/03/03 13:00:45;;;;;;;9.30;3.12;;;;;;;8.56;49.46;101310.48;1704516;82;21350;-63
2021/03/03 13:03:15;;;;;;;5.95;3.30;;;;;;;8.62;49.30;101313.58;1750069;82;21209;-60
2021/03/03 13:05:43;;;;;;;6.37;3.62;;;;;;;8.59;48.72;101309.30;1750151;82;21172;-61
2021/03/03 13:08:12;;;;;;;8.40;4.08;;;;;;;8.51;49.33;101307.38;1749953;82;21260;-63
2021/03/03 13:10:39;;;;;;;7.92;3.10;;;;;;;8.50;48.66;101308.40;1750146;82;21337;-64
2021/03/03 13:13:07;;;;;;;7.10;3.10;;;;;;;8.44;48.51;101310.89;1689507;82;21193;-63
2021/03/03 13:15:36;;;;;;;6.55;3.00;;;;;;;8.46;48.90;101304.28;1685632;84;21539;-65
2021/03/03 13:18:04;;;;;;;7.25;4.00;;;;;;;8.51;48.74;101305.16;1685594;85;21272;-66
2021/03/03 13:20:32;;;;;;;6.33;3.52;;;;;;;8.54;48.49;101317.98;1685620;84;21448;-65
2021/03/03 13:22:59;;;;;;;6.92;3.15;;;;;;;8.55;48.22;101307.41;1685857;84;21885;-66
2021/03/03 13:25:28;;;;;;;4.92;2.47;;;;;;;8.57;47.71;101304.00;1685679;85;21162;-64
2021/03/03 13:27:55;;;;;;;5.53;2.55;;;;;;;8.63;48.06;101301.63;1689051;82;21205;-63
2021/03/03 13:30:23;;;;;;;6.30;2.77;;;;;;;8.71;47.76;101305.77;1718670;83;21538;-64
2021/03/03 13:32:50;;;;;;;6.72;2.70;;;;;;;8.76;47.79;101300.16;1701428;83;21858;-62
2021/03/03 13:35:18;;;;;;;5.80;2.40;;;;;;;8.78;47.00;101290.44;1701388;83;21272;-65
2021/03/03 13:37:45;;;;;;;6.47;2.80;;;;;;;8.78;47.27;101298.13;1719801;83;21178;-65
2021/03/03 13:40:14;;;;;;;5.95;3.05;;;;;;;8.76;46.64;101296.58;1712769;83;21166;-64
2021/03/03 13:42:41;;;;;;;4.15;2.25;;;;;;;8.77;47.26;101291.45;1718616;82;21200;-61
2021/03/03 13:45:11;;;;;;;5.42;2.52;;;;;;;8.82;46.28;101287.72;1715961;83;21377;-65
2021/03/03 13:47:39;;;;;;;6.20;2.50;;;;;;;8.79;45.87;101279.34;1713931;83;21304;-63
2021/03/03 13:50:07;;;;;;;6.05;2.40;;;;;;;8.75;46.20;101275.22;1714276;83;21912;-63
2021/03/03 13:52:35;;;;;;;4.53;2.25;;;;;;;8.81;46.00;101277.81;1712288;83;21178;-63
2021/03/03 13:55:02;;;;;;;5.58;2.70;;;;;;;8.74;46.17;101269.41;1714015;83;21161;-63
2021/03/03 13:57:30;;;;;;;5.70;3.08;;;;;;;8.78;46.68;101269.42;1714421;83;21429;-64
2021/03/03 13:59:57;;;;;;;4.60;2.27;;;;;;;8.89;46.99;101264.17;1711336;83;21296;-65
2021/03/03 14:02:24;;;;;;;4.83;2.10;;;;;;;9.02;46.43;101270.53;1704890;82;21972;-62
2021/03/03 14:04:52;;;;;;;4.62;2.50;;;;;;;9.02;45.75;101262.33;1714838;83;21247;-63
2021/03/03 14:07:20;;;;;;;5.87;1.98;;;;;;;8.96;45.37;101261.12;1701975;83;21210;-62
2021/03/03 14:09:51;;;;;;;6.10;2.45;;;;;;;8.95;45.51;101255.31;1708237;82;21186;-64
2021/03/03 14:12:27;;;;;;;4.08;2.30;;;;;;;8.94;45.73;101256.33;1734084;82;21292;-62
2021/03/03 14:14:55;;;;;;;5.12;2.42;;;;;;;8.84;45.14;101252.88;1737054;82;21866;-62
2021/03/03 14:17:23;;;;;;;5.83;2.22;;;;;;;8.68;45.34;101249.58;1717090;82;21226;-62
2021/03/03 14:19:51;;;;;;;4.50;2.40;;;;;;;8.58;45.75;101248.85;1680398;84;22003;-65
2021/03/03 14:22:18;;;;;;;6.45;2.65;;;;;;;8.50;46.06;101251.55;1680611;85;21555;-62
2021/03/03 14:24:46;;;;;;;7.10;2.70;;;;;;;8.40;46.84;101242.08;1680429;84;21146;-65
2021/03/03 14:27:14;;;;;;;5.60;2.52;;;;;;;8.42;47.65;101244.14;1680706;84;21173;-63
2021/03/03 14:29:48;;;;;;;6.00;2.58;;;;;;;8.44;48.04;101237.14;1682213;83;21214;-64
2021/03/03 14:32:15;;;;;;;8.80;3.10;;;;;;;8.40;48.37;101244.81;1681906;84;21969;-64
2021/03/03 14:34:42;;;;;;;6.70;3.00;;;;;;;8.42;48.33;101237.31;1707829;84;21333;-62
2021/03/03 14:37:10;;;;;;;6.87;2.92;;;;;;;8.71;48.40;101233.36;1707953;84;21396;-63
2021/03/03 14:39:37;;;;;;;6.87;3.08;;;;;;;9.35;47.68;101237.30;1708553;83;21146;-63
2021/03/03 14:42:06;;;;;;;5.95;2.90;;;;;;;10.17;46.13;101242.59;1719287;83;21156;-63
2021/03/03 14:44:34;;;;;;;9.20;3.08;;;;;;;11.00;44.86;101238.04;1719223;83;21142;-62
2021/03/03 14:47:01;;;;;;;5.97;2.90;;;;;;;11.34;43.67;101225.85;1708160;83;21948;-62
2021/03/03 14:49:30;;;;;;;6.42;2.92;;;;;;;11.49;42.45;101228.14;1701649;83;21292;-68
2021/03/03 14:51:57;;;;;;;7.45;2.70;;;;;;;11.84;42.07;101232.70;1703081;84;21173;-62
2021/03/03 14:54:24;;;;;;;5.50;3.10;;;;;;;12.13;41.21;101221.77;1706574;84;21435;-61
2021/03/03 14:56:52;;;;;;;6.65;3.52;;;;;;;11.85;41.34;101218.80;1710680;83;21435;-62
2021/03/03 14:59:21;;;;;;;8.30;2.92;;;;;;;11.30;41.58;101213.02;1702637;84;21217;-68
2021/03/03 15:01:49;;;;;;;5.65;3.22;;;;;;;10.69;42.83;101217.98;1715233;83;21964;-70
2021/03/03 15:04:16;;;;;;;6.25;3.22;;;;;;;10.21;43.45;101217.11;1685207;85;21298;-64
2021/03/03 15:06:44;;;;;;;6.87;2.98;;;;;;;9.73;44.45;101216.61;1660611;86;21884;-62
2021/03/03 15:09:11;;;;;;;7.35;3.65;;;;;;;9.32;45.13;101215.77;1659416;86;21421;-66
2021/03/03 15:11:39;;;;;;;9.40;4.10;;;;;;;8.94;46.02;101211.23;1685383;85;21877;-66
2021/03/03 15:14:10;;;;;;;11.70;5.58;;;;;;;8.58;46.65;101214.20;1663880;85;21312;-66
2021/03/03 15:16:54;;;;;;;14.73;4.10;;;;;;;8.27;47.19;101217.06;1625312;88;21217;-64
2021/03/03 15:19:32;;;;;;;8.48;3.37;;;;;;;7.95;47.73;101216.37;1654210;86;21451;-64
2021/03/03 15:21:59;;;;;;;6.28;3.15;;;;;;;7.78;48.27;101209.91;1668882;86;21343;-63
2021/03/03 15:24:27;;;;;;;4.92;2.75;;;;;;;7.69;48.18;101207.29;1668716;86;21471;-62
2021/03/03 15:26:54;;;;;;;6.03;3.10;;;;;;;7.57;48.23;101213.52;1668656;86;21186;-62
2021/03/03 15:29:23;;;;;;;6.83;3.40;;;;;;;7.44;48.72;101211.19;1668664;86;21221;-64
2021/03/03 15:31:51;;;;;;;6.78;3.27;;;;;;;7.37;48.85;101214.20;1668682;86;21447;-62
2021/03/03 15:34:19;;;;;;;8.63;3.33;;;;;;;7.28;49.05;101206.45;1668731;86;21193;-65
2021/03/03 15:36:46;;;;;;;6.83;3.20;;;;;;;7.20;49.25;101203.66;1668737;86;21192;-63
2021/03/03 15:39:14;;;;;;;8.08;3.42;;;;;;;7.08;49.57;101193.11;1668556;86;21432;-63
2021/03/03 15:41:41;;;;;;;8.95;3.12;;;;;;;6.98;49.77;101204.09;1673656;84;21188;-66
2021/03/03 15:44:08;;;;;;;5.22;2.72;;;;;;;6.89;49.65;101201.78;1697291;84;21468;-65
2021/03/03 15:46:36;;;;;;;8.88;3.27;;;;;;;6.80;49.57;101201.85;1661905;85;21186;-65
2021/03/03 15:49:04;;;;;;;7.97;3.33;;;;;;;6.66;49.83;101203.23;1652858;85;21433;-66
2021/03/03 15:51:32;;;;;;;6.67;2.90;;;;;;;6.61;50.15;101201.47;1651851;86;21213;-69
2021/03/03 15:53:59;;;;;;;6.72;2.85;;;;;;;6.57;49.82;101198.70;1652940;86;21913;-65
2021/03/03 15:56:27;;;;;;;7.22;3.33;;;;;;;6.48;49.89;101205.03;1653107;86;21198;-65
2021/03/03 15:58:58;;;;;;;6.60;2.98;;;;;;;6.44;50.13;101204.47;1641902;85;21453;-67
2021/03/03 16:01:24;;;;;;;9.45;3.47;;;;;;;6.39;50.27;101203.22;1664791;85;21943;-65
2021/03/03 16:03:52;;;;;;;7.53;3.50;;;;;;;6.33;50.34;101215.06;1650004;86;21185;-66
2021/03/03 16:06:20;;;;;;;9.45;3.47;;;;;;;6.28;50.61;101211.07;1675177;84;21272;-64
2021/03/03 16:08:49;;;;;;;10.63;3.67;;;;;;;6.22;50.69;101208.95;1674961;84;21408;-66
2021/03/03 16:11:18;;;;;;;8.65;3.80;;;;;;;6.12;50.87;101204.05;1667773;86;21145;-70
2021/03/03 16:13:47;;;;;;;10.82;3.75;;;;;;;6.03;50.93;101208.52;1668425;86;21299;-65
2021/03/03 16:16:14;;;;;;;10.45;5.20;;;;;;;5.96;51.31;101202.82;1668201;86;21476;-63
2021/03/03 16:18:42;;;;;;;10.50;3.92;;;;;;;5.93;51.43;101199.04;1668513;86;21466;-66
2021/03/03 16:21:09;;;;;;;9.85;4.08;;;;;;;5.92;51.71;101200.05;1668356;86;21853;-62
2021/03/03 16:23:37;;;;;;;9.28;3.98;;;;;;;5.88;51.81;101204.03;1659366;86;21272;-63
2021/03/03 16:26:04;;;;;;;6.85;3.85;;;;;;;5.84;52.01;101195.78;1657587;86;21176;-64
2021/03/03 16:28:33;;;;;;;9.55;4.90;;;;;;;5.82;52.07;101198.30;1661261;84;21195;-64
2021/03/03 16:31:00;;;;;;;10.72;4.72;;;;;;;5.79;52.28;101195.36;1668924;84;21189;-62
2021/03/03 16:33:30;;;;;;;12.18;5.67;;;;;;;5.78;52.65;101203.67;1657232;86;21461;-63
2021/03/03 16:35:59;;;;;;;11.25;5.87;;;;;;;5.73;52.96;101200.03;1668761;86;21198;-63
2021/03/03 16:38:28;;;;;;;14.70;7.42;;;;;;;5.68;53.27;101194.18;1668355;86;21176;-62
2021/03/03 16:40:55;;;;;;;18.67;7.30;;;;;;;5.61;53.54;101197.98;1642563;86;21255;-63
2021/03/03 16:43:22;;;;;;;25.27;10.85;;;;;;;5.56;53.94;101198.06;1666310;86;21505;-63
2021/03/03 16:45:50;;;;;;;18.17;8.25;;;;;;;5.49;54.29;101197.80;1668473;86;21869;-62
2021/03/03 16:48:18;;;;;;;16.45;7.97;;;;;;;5.43;54.55;101195.66;1668616;86;21499;-63
2021/03/03 16:50:46;;;;;;;16.52;8.13;;;;;;;5.37;54.73;101192.16;1668610;86;21292;-65
2021/03/03 16:53:15;;;;;;;24.15;11.05;;;;;;;5.33;54.81;101190.23;1668454;85;21172;-62
2021/03/03 16:55:43;;;;;;;15.30;7.45;;;;;;;5.29;54.93;101192.03;1671361;85;21411;-64
2021/03/03 16:58:10;;;;;;;20.30;9.60;;;;;;;5.25;55.23;101194.17;1651452;85;21477;-63
2021/03/03 17:00:38;;;;;;;20.80;9.48;;;;;;;5.18;55.42;101186.71;1641419;86;21296;-65
2021/03/03 17:03:07;;;;;;;20.05;9.65;;;;;;;5.14;55.67;101193.43;1641268;85;21319;-61
2021/03/03 17:05:38;;;;;;;21.65;8.78;;;;;;;5.12;55.86;101185.42;1641656;85;21201;-63
2021/03/03 17:08:06;;;;;;;17.82;7.58;;;;;;;5.10;56.06;101183.35;1644600;86;21211;-62
2021/03/03 17:10:35;;;;;;;16.15;7.95;;;;;;;5.08;56.30;101181.28;1670686;85;21822;-62
2021/03/03 17:13:04;;;;;;;20.12;10.18;;;;;;;5.04;56.46;101183.92;1672062;85;21883;-61
2021/03/03 17:15:32;;;;;;;22.32;10.43;;;;;;;5.00;56.78;101182.49;1644565;87;21288;-61
2021/03/03 17:18:00;;;;;;;20.80;9.63;;;;;;;4.96;57.05;101179.70;1658461;85;21164;-64
2021/03/03 17:20:28;;;;;;;19.87;8.50;;;;;;;4.91;57.30;101180.63;1672113;85;21169;-63
2021/03/03 17:22:57;;;;;;;19.80;8.28;;;;;;;4.85;57.53;101191.56;1672003;85;21202;-63
2021/03/03 17:25:24;;;;;;;20.12;8.63;;;;;;;4.83;57.84;101177.77;1683488;84;21466;-62
2021/03/03 17:27:52;;;;;;;16.35;7.62;;;;;;;4.80;58.02;101182.13;1683750;85;21471;-62
2021/03/03 17:30:21;;;;;;;19.20;8.00;;;;;;;4.74;58.30;101178.98;1683780;85;21322;-62
2021/03/03 17:32:48;;;;;;;17.60;6.87;;;;;;;4.70;58.50;101170.76;1683753;85;21195;-62
2021/03/03 17:35:16;;;;;;;16.97;7.70;;;;;;;4.66;58.80;101169.32;1681096;85;21550;-63
2021/03/03 17:37:44;;;;;;;21.60;9.30;;;;;;;4.60;59.00;101160.38;1650201;85;21201;-63
2021/03/03 17:40:14;;;;;;;16.12;6.80;;;;;;;4.56;59.30;101156.23;1640389;85;21483;-64
2021/03/03 17:42:43;;;;;;;20.62;8.60;;;;;;;4.52;59.51;101166.13;1654549;86;21176;-65
2021/03/03 17:45:13;;;;;;;17.17;7.62;;;;;;;4.45;59.80;101160.39;1655480;85;21213;-62
2021/03/03 17:47:43;;;;;;;14.38;6.92;;;;;;;4.40;60.03;101165.39;1655557;86;21479;-63
2021/03/03 17:50:12;;;;;;;13.98;6.42;;;;;;;4.37;60.31;101163.81;1655586;86;21468;-62
2021/03/03 17:52:40;;;;;;;14.23;6.12;;;;;;;4.34;60.47;101171.37;1653167;86;21236;-63
2021/03/03 17:55:27;;;;;;;11.00;5.95;;;;;;;4.31;60.65;101171.15;1665776;85;21423;-66
2021/03/03 17:58:01;;;;;;;17.50;7.10;;;;;;;4.29;60.83;101165.50;1679348;85;21163;-61
2021/03/03 18:00:28;;;;;;;13.38;5.83;;;;;;;4.27;60.94;101163.42;1666094;85;21417;-66
2021/03/03 18:02:57;;;;;;;13.25;6.40;;;;;;;4.25;61.06;101159.49;1662481;86;21427;-62
2021/03/03 18:05:25;;;;;;;15.32;6.67;;;;;;;4.24;61.22;101159.63;1662426;86;21412;-63
2021/03/03 18:07:52;;;;;;;21.37;9.88;;;;;;;4.23;61.36;101160.62;1662304;86;21189;-64
2021/03/03 18:10:20;;;;;;;21.82;8.95;;;;;;;4.19;61.48;101151.91;1663038;86;21173;-63
2021/03/03 18:12:47;;;;;;;15.95;7.85;;;;;;;4.14;61.58;101151.47;1647695;87;21961;-63
2021/03/03 18:15:16;;;;;;;22.13;9.13;;;;;;;4.10;61.78;101150.03;1647740;87;21328;-62
2021/03/03 18:17:43;;;;;;;11.38;6.60;;;;;;;4.06;61.91;101144.52;1647839;86;21190;-63
2021/03/03 18:20:12;;;;;;;26.33;10.15;;;;;;;3.99;62.22;101142.00;1662305;86;21444;-63
2021/03/03 18:22:40;;;;;;;17.65;9.00;;;;;;;3.99;62.49;101143.35;1663081;86;21390;-63
2021/03/03 18:25:08;;;;;;;26.12;10.50;;;;;;;4.01;62.62;101142.72;1647658;87;21558;-63
2021/03/03 18:27:37;;;;;;;24.12;11.25;;;;;;;4.01;62.63;101135.94;1647404;87;21401;-63
2021/03/03 18:30:06;;;;;;;26.82;12.70;;;;;;;3.99;62.64;101131.15;1611460;87;21487;-61
2021/03/03 18:32:35;;;;;;;28.32;11.88;;;;;;;3.96;62.70;101130.06;1607790;89;21878;-62
2021/03/03 18:35:05;;;;;;;26.55;10.88;;;;;;;3.91;62.75;101122.34;1607771;89;21340;-62
2021/03/03 18:37:34;;;;;;;21.40;9.93;;;;;;;3.87;62.84;101124.08;1607328;88;21286;-63
2021/03/03 18:40:02;;;;;;;19.32;9.98;;;;;;;3.81;62.96;101118.70;1607950;89;21199;-63
2021/03/03 18:42:30;;;;;;;20.48;9.23;;;;;;;3.75;63.11;101117.91;1608009;89;21312;-62
2021/03/03 18:44:58;;;;;;;21.80;9.45;;;;;;;3.70;63.31;101113.39;1621920;87;21201;-63
2021/03/03 18:47:26;;;;;;;19.87;9.15;;;;;;;3.67;63.49;101115.88;1662230;86;21417;-64
2021/03/03 18:49:54;;;;;;;20.23;9.73;;;;;;;3.67;63.62;101117.72;1633868;87;21245;-62
2021/03/03 18:52:21;;;;;;;21.82;9.43;;;;;;;3.61;63.69;101112.35;1633863;87;21206;-62
2021/03/03 18:54:48;;;;;;;25.35;12.28;;;;;;;3.57;63.90;101108.69;1662175;84;21207;-62
2021/03/03 18:57:15;;;;;;;23.80;10.38;;;;;;;3.55;64.01;101099.84;1650105;86;21928;-63
2021/03/03 18:59:43;;;;;;;23.00;10.53;;;;;;;3.48;64.00;101103.09;1656644;86;21182;-63
2021/03/03 19:02:10;;;;;;;21.25;10.20;;;;;;;3.43;64.10;101101.28;1656672;86;21532;-63
2021/03/03 19:04:38;;;;;;;17.12;8.18;;;;;;;3.37;64.27;101100.96;1644160;86;21186;-62
2021/03/03 19:07:07;;;;;;;22.20;10.08;;;;;;;3.31;64.49;101092.88;1637563;87;21263;-63
2021/03/03 19:09:36;;;;;;;22.22;10.13;;;;;;;3.30;64.56;101091.66;1634571;87;21197;-62
2021/03/03 19:12:09;;;;;;;17.52;8.90;;;;;;;3.26;64.68;101089.72;1638564;87;21233;-61
2021/03/03 19:14:35;;;;;;;18.00;8.83;;;;;;;3.25;64.77;101091.16;1638166;87;21306;-63
2021/03/03 19:17:04;;;;;;;15.58;7.80;;;;;;;3.27;64.82;101082.45;1615265;87;21399;-63
2021/03/03 19:19:32;;;;;;;29.72;14.78;;;;;;;3.29;64.81;101077.26;1609720;89;21210;-62
2021/03/03 19:22:00;;;;;;;25.77;11.40;;;;;;;3.28;64.74;101071.48;1609697;89;21459;-61
2021/03/03 19:24:28;;;;;;;22.98;9.48;;;;;;;3.21;64.84;101062.14;1609708;89;21501;-61
2021/03/03 19:26:55;;;;;;;32.15;11.88;;;;;;;3.21;64.97;101059.44;1625936;86;21477;-61
2021/03/03 19:29:23;;;;;;;32.80;14.55;;;;;;;3.21;65.03;101058.08;1627891;87;21997;-63
2021/03/03 19:31:50;;;;;;;34.55;14.10;;;;;;;3.22;65.08;101062.50;1612355;89;21315;-62
2021/03/03 19:34:18;;;;;;;27.90;13.65;;;;;;;3.20;65.07;101059.08;1612468;89;21879;-63
2021/03/03 19:36:45;;;;;;;26.65;13.35;;;;;;;3.17;65.11;101056.63;1623184;87;21195;-61
2021/03/03 19:39:13;;;;;;;25.02;12.20;;;;;;;3.13;65.22;101055.19;1638218;87;21762;-63
2021/03/03 19:41:40;;;;;;;25.27;10.65;;;;;;;3.13;65.27;101047.06;1638185;87;21465;-62
2021/03/03 19:44:10;;;;;;;26.75;12.15;;;;;;;3.10;65.24;101041.42;1635956;87;21537;-64
2021/03/03 19:46:38;;;;;;;20.80;9.73;;;;;;;3.09;65.30;101041.55;1638250;87;21188;-64
2021/03/03 19:49:07;;;;;;;20.32;9.23;;;;;;;3.06;65.35;101040.47;1638304;87;21219;-63
2021/03/03 19:51:35;;;;;;;19.42;8.65;;;;;;;3.07;65.38;101035.41;1638238;87;21220;-62
2021/03/03 19:54:03;;;;;;;20.97;9.85;;;;;;;3.08;65.34;101033.07;1638225;87;21202;-64
2021/03/03 19:56:30;;;;;;;22.02;10.32;;;;;;;3.05;65.35;101030.63;1662771;85;21192;-63
2021/03/03 19:58:58;;;;;;;25.72;10.48;;;;;;;3.06;65.30;101026.94;1671567;85;21197;-65
2021/03/03 20:01:27;;;;;;;21.82;9.88;;;;;;;3.04;65.29;101022.15;1671670;85;21921;-61
2021/03/03 20:03:55;;;;;;;25.92;10.03;;;;;;;3.01;65.19;101022.42;1671658;85;21184;-64
2021/03/03 20:06:23;;;;;;;25.55;10.25;;;;;;;3.00;65.20;101016.64;1671745;85;21201;-63
2021/03/03 20:08:50;;;;;;;21.90;9.50;;;;;;;3.01;65.18;101021.06;1671673;85;21919;-64
2021/03/03 20:11:17;;;;;;;23.95;9.90;;;;;;;3.02;65.15;101021.42;1671644;85;21189;-62
2021/03/03 20:13:45;;;;;;;21.73;10.28;;;;;;;3.01;65.10;101008.38;1671758;85;21798;-63
2021/03/03 20:16:12;;;;;;;33.67;14.33;;;;;;;3.02;65.00;101021.42;1671683;85;21280;-62
2021/03/03 20:18:40;;;;;;;25.37;10.15;;;;;;;3.02;64.97;101019.58;1671737;85;21491;-64
2021/03/03 20:21:07;;;;;;;19.67;9.70;;;;;;;3.00;64.83;101016.14;1671647;85;21178;-64
2021/03/03 20:23:34;;;;;;;21.68;10.23;;;;;;;2.96;64.73;101015.19;1671649;85;21400;-63
2021/03/03 20:26:02;;;;;;;22.05;9.50;;;;;;;2.94;64.66;101007.20;1671674;85;21321;-62
2021/03/03 20:28:30;;;;;;;30.12;13.18;;;;;;;2.95;64.61;101014.83;1671538;85;21899;-62
2021/03/03 20:30:57;;;;;;;25.52;10.43;;;;;;;2.93;64.52;101012.75;1671705;85;21287;-63